createdAt,value
2023-04-05T00:01:37.588Z,12.57
2023-04-05T00:04:08.479Z,13.33
2023-04-05T00:06:39.994Z,14.97
2023-04-05T00:09:08.398Z,14.83
2023-04-05T00:11:37.147Z,13.93
2023-04-05T00:14:05.310Z,13.73
2023-04-05T00:16:34.447Z,13.60
2023-04-05T00:19:02.606Z,13.63
2023-04-05T00:21:34.996Z,13.43
2023-04-05T00:24:05.334Z,13.47
2023-04-05T00:26:35.417Z,13.10
2023-04-05T00:29:03.639Z,13.10
2023-04-05T00:31:31.876Z,13.63
2023-04-05T00:34:00.009Z,13.80
2023-04-05T00:36:30.436Z,13.83
2023-04-05T00:39:01.365Z,12.93
2023-04-05T00:41:31.448Z,13.37
2023-04-05T00:43:59.992Z,15.93
2023-04-05T00:46:30.980Z,15.87
2023-04-05T00:48:59.127Z,15.00
2023-04-05T00:51:33.695Z,14.90
2023-04-05T00:54:03.147Z,16.90
2023-04-05T00:56:33.437Z,17.97
2023-04-05T00:59:04.247Z,18.80
2023-04-05T01:01:38.458Z,17.13
2023-04-05T01:04:08.456Z,17.57
2023-04-05T01:07:06.527Z,17.90
2023-04-05T01:09:39.673Z,17.17
2023-04-05T01:12:14.430Z,17.93
2023-04-05T01:14:47.524Z,16.73
2023-04-05T01:17:22.658Z,18.10
2023-04-05T01:19:53.357Z,17.90
2023-04-05T01:22:56.432Z,18.57
2023-04-05T01:25:50.660Z,19.30
2023-04-05T01:28:45.201Z,18.83
2023-04-05T01:31:24.419Z,17.57
2023-04-05T01:34:01.393Z,17.77
2023-04-05T01:36:40.759Z,17.83
2023-04-05T01:39:12.718Z,18.00
2023-04-05T01:41:41.244Z,17.97
2023-04-05T01:44:10.340Z,18.03
2023-04-05T01:46:41.479Z,18.57
2023-04-05T01:49:10.376Z,17.73
2023-04-05T01:51:42.193Z,17.20
2023-04-05T01:54:10.515Z,16.77
2023-04-05T01:56:40.295Z,18.23
2023-04-05T01:59:08.663Z,17.60
2023-04-05T02:01:36.847Z,16.90
2023-04-05T02:04:06.420Z,17.50
2023-04-05T02:06:35.278Z,16.97
2023-04-05T02:09:03.538Z,16.97
2023-04-05T02:11:31.594Z,15.83
2023-04-05T02:14:04.437Z,16.63
2023-04-05T02:16:33.620Z,15.97
2023-04-05T02:19:02.437Z,16.17
2023-04-05T02:21:32.692Z,16.40
2023-04-05T02:24:05.011Z,17.77
2023-04-05T02:26:33.479Z,17.97
2023-04-05T02:29:01.682Z,18.97
2023-04-05T02:31:29.985Z,18.20
2023-04-05T02:34:00.991Z,18.23
2023-04-05T02:39:23.032Z,19.07
2023-04-05T02:41:51.149Z,18.33
2023-04-05T02:44:20.331Z,17.63
2023-04-05T02:46:49.305Z,18.10
2023-04-05T02:49:18.602Z,18.10
2023-04-05T02:51:48.265Z,18.03
2023-04-05T02:54:17.448Z,16.93
2023-04-05T02:56:50.013Z,16.93
2023-04-05T02:59:21.542Z,16.53
2023-04-05T03:01:50.460Z,16.70
2023-04-05T03:04:26.963Z,16.50
2023-04-05T03:07:03.468Z,17.40
2023-04-05T03:09:33.873Z,17.23
2023-04-05T03:12:08.718Z,16.13
2023-04-05T03:14:42.443Z,17.63
2023-04-05T03:17:15.466Z,17.10
2023-04-05T03:19:48.350Z,17.13
2023-04-05T03:22:28.444Z,17.60
2023-04-05T03:24:58.730Z,17.67
2023-04-05T03:27:30.465Z,17.47
2023-04-05T03:30:07.706Z,18.80
2023-04-05T03:32:41.580Z,18.13
2023-04-05T03:35:23.469Z,17.93
2023-04-05T03:37:52.475Z,17.70
2023-04-05T03:40:21.458Z,17.27
2023-04-05T03:42:52.498Z,17.90
2023-04-05T03:45:24.264Z,18.00
2023-04-05T03:47:56.182Z,18.07
2023-04-05T03:50:24.368Z,17.90
2023-04-05T03:52:54.461Z,18.40
2023-04-05T03:55:24.282Z,17.90
2023-04-05T03:57:58.615Z,17.77
2023-04-05T04:00:33.360Z,17.17
2023-04-05T04:03:22.552Z,19.30
2023-04-05T04:05:53.014Z,17.20
2023-04-05T04:08:22.166Z,18.87
2023-04-05T04:10:50.913Z,17.67
2023-04-05T04:13:24.818Z,17.57
2023-04-05T04:16:05.610Z,17.83
2023-04-05T04:18:48.594Z,17.63
2023-04-05T04:21:37.480Z,18.63
2023-04-05T04:24:22.081Z,16.97
2023-04-05T04:27:05.539Z,18.43
2023-04-05T04:29:49.601Z,17.43
2023-04-05T04:32:58.828Z,18.50
2023-04-05T04:35:39.319Z,18.53
2023-04-05T04:38:27.868Z,16.93
2023-04-05T04:41:27.020Z,16.53
2023-04-05T04:44:15.472Z,16.77
2023-04-05T04:47:14.843Z,16.80
2023-04-05T04:50:03.453Z,18.30
2023-04-05T04:52:31.678Z,17.53
2023-04-05T04:54:59.828Z,15.73
2023-04-05T04:57:27.943Z,15.93
2023-04-05T04:59:56.772Z,17.60
2023-04-05T05:02:28.695Z,19.77
2023-04-05T05:04:58.813Z,16.43
2023-04-05T05:07:26.899Z,15.40
2023-04-05T05:09:55.079Z,15.10
2023-04-05T05:12:23.785Z,14.63
2023-04-05T05:14:52.019Z,15.07
2023-04-05T05:17:23.526Z,15.80
2023-04-05T05:19:54.660Z,15.90
2023-04-05T05:22:24.306Z,14.77
2023-04-05T05:24:52.614Z,14.43
2023-04-05T05:27:21.582Z,15.50
2023-04-05T05:29:49.734Z,15.87
2023-04-05T05:32:17.826Z,16.80
2023-04-05T05:34:48.648Z,14.67
2023-04-05T05:37:18.233Z,14.40
2023-04-05T05:39:46.413Z,14.33
2023-04-05T05:42:14.514Z,15.40
2023-04-05T05:44:42.630Z,16.97
2023-04-05T05:47:14.237Z,16.70
2023-04-05T05:49:42.519Z,17.70
2023-04-05T05:52:11.078Z,16.13
2023-04-05T05:54:40.527Z,15.10
2023-04-05T05:57:08.694Z,15.63
2023-04-05T05:59:37.325Z,14.83
2023-04-05T06:02:05.497Z,15.00
2023-04-05T06:04:37.261Z,15.47
2023-04-05T06:07:06.875Z,15.30
2023-04-05T06:09:35.307Z,14.43
2023-04-05T06:12:05.484Z,15.30
2023-04-05T06:14:33.630Z,15.43
2023-04-05T06:17:01.801Z,14.47
2023-04-05T06:19:29.929Z,15.30
2023-04-05T06:22:00.909Z,15.20
2023-04-05T06:24:31.876Z,14.93
2023-04-05T06:27:00.234Z,14.57
2023-04-05T06:29:29.642Z,14.30
2023-04-05T06:31:58.098Z,14.90
2023-04-05T06:34:28.284Z,13.87
2023-04-05T06:36:56.756Z,14.77
2023-04-05T06:39:25.001Z,14.93
2023-04-05T06:41:53.043Z,14.13
2023-04-05T06:44:29.096Z,14.37
2023-04-05T06:46:58.580Z,13.47
2023-04-05T06:49:26.642Z,14.77
2023-04-05T06:51:54.851Z,13.67
2023-04-05T06:54:24.132Z,13.27
2023-04-05T06:56:52.604Z,13.20
2023-04-05T06:59:23.955Z,13.50
2023-04-05T07:01:52.016Z,12.73
2023-04-05T07:04:22.568Z,13.57
2023-04-05T07:06:51.071Z,12.37
2023-04-05T07:09:20.709Z,12.27
2023-04-05T07:11:52.296Z,12.07
2023-04-05T07:14:21.709Z,12.63
2023-04-05T07:16:50.240Z,11.47
2023-04-05T07:19:18.534Z,10.93
2023-04-05T07:21:48.509Z,12.10
2023-04-05T07:24:21.531Z,10.27
2023-04-05T07:26:49.698Z,9.47
2023-04-05T07:29:17.801Z,9.53
2023-04-05T07:31:46.461Z,9.60
2023-04-05T07:34:14.933Z,11.10
2023-04-05T07:36:43.363Z,10.90
2023-04-05T07:39:14.446Z,10.73
2023-04-05T07:41:43.386Z,12.07
2023-04-05T07:44:12.062Z,13.77
2023-04-05T07:46:46.918Z,10.07
2023-04-05T07:49:16.767Z,9.67
2023-04-05T07:51:46.480Z,9.10
2023-04-05T07:54:16.228Z,8.47
2023-04-05T07:56:44.416Z,7.73
2023-04-05T07:59:14.970Z,7.13
2023-04-05T08:01:43.754Z,7.97
2023-04-05T08:04:11.844Z,7.27
2023-04-05T08:06:40.158Z,7.43
2023-04-05T08:09:09.155Z,8.50
2023-04-05T08:11:39.162Z,8.07
2023-04-05T08:14:07.386Z,8.80
2023-04-05T08:16:37.623Z,7.60
2023-04-05T08:19:06.275Z,7.97
2023-04-05T08:21:34.343Z,8.27
2023-04-05T08:24:02.480Z,7.07
2023-04-05T08:26:30.812Z,6.67
2023-04-05T08:29:00.572Z,7.47
2023-04-05T08:31:30.141Z,6.23
2023-04-05T08:34:00.136Z,6.70
2023-04-05T08:36:28.258Z,5.93
2023-04-05T08:38:56.453Z,5.70
2023-04-05T08:41:26.222Z,5.80
2023-04-05T08:43:59.032Z,6.10
2023-04-05T08:46:32.569Z,5.30
2023-04-05T08:49:02.029Z,3.40
2023-04-05T08:51:31.167Z,4.47
2023-04-05T08:54:01.438Z,5.43
2023-04-05T08:56:33.624Z,5.07
2023-04-05T08:59:04.891Z,4.93
2023-04-05T09:01:40.178Z,4.37
2023-04-05T09:04:11.497Z,4.30
2023-04-05T09:06:40.675Z,4.87
2023-04-05T09:09:09.681Z,4.07
2023-04-05T09:11:38.588Z,3.50
2023-04-05T09:14:07.476Z,3.80
2023-04-05T09:16:41.365Z,4.63
2023-04-05T09:19:13.683Z,3.50
2023-04-05T09:22:04.147Z,3.53
2023-04-05T09:24:41.694Z,3.00
2023-04-05T09:27:11.536Z,3.20
2023-04-05T09:29:46.616Z,2.93
2023-04-05T09:32:18.215Z,2.70
2023-04-05T09:34:48.110Z,2.70
2023-04-05T09:37:29.381Z,2.50
2023-04-05T09:40:04.539Z,2.73
2023-04-05T09:42:44.833Z,2.97
2023-04-05T09:45:13.768Z,3.10
2023-04-05T09:47:58.680Z,3.10
2023-04-05T09:50:27.262Z,3.20
2023-04-05T09:53:08.125Z,11.03
2023-04-05T09:55:36.713Z,3.97
2023-04-05T09:58:05.010Z,3.10
2023-04-05T10:00:33.578Z,2.80
2023-04-05T10:03:03.085Z,2.50
2023-04-05T10:05:32.655Z,2.70
2023-04-05T10:08:02.186Z,2.60
2023-04-05T10:10:32.851Z,2.50
2023-04-05T10:13:01.772Z,2.43
2023-04-05T10:15:31.609Z,2.73
2023-04-05T10:18:09.859Z,2.43
2023-04-05T10:20:41.759Z,2.27
2023-04-05T10:23:13.901Z,2.70
2023-04-05T10:25:52.531Z,3.30
2023-04-05T10:28:31.965Z,3.20
2023-04-05T10:31:10.695Z,3.33
2023-04-05T10:33:45.435Z,3.27
2023-04-05T10:36:23.258Z,3.03
2023-04-05T10:39:01.882Z,9.83
2023-04-05T10:41:35.099Z,3.57
2023-04-05T10:44:14.797Z,2.90
2023-04-05T10:46:47.933Z,3.10
2023-04-05T10:49:23.574Z,2.80
2023-04-05T10:51:55.440Z,3.20
2023-04-05T10:54:25.158Z,3.20
2023-04-05T10:56:53.796Z,3.20
2023-04-05T10:59:23.695Z,3.20
2023-04-05T11:01:58.832Z,3.30
2023-04-05T11:04:28.420Z,3.30
2023-04-05T11:07:13.739Z,3.20
2023-04-05T11:09:54.435Z,3.13
2023-04-05T11:13:03.462Z,3.00
2023-04-05T11:15:36.436Z,3.60
2023-04-05T11:18:06.547Z,3.50
2023-04-05T11:20:51.782Z,3.23
2023-04-05T11:23:21.646Z,3.17
2023-04-05T11:25:55.740Z,3.27
2023-04-05T11:28:31.832Z,3.57
2023-04-05T11:31:15.260Z,3.40
2023-04-05T11:33:59.451Z,3.17
2023-04-05T11:36:39.598Z,2.57
2023-04-05T11:39:30.075Z,2.87
2023-04-05T11:42:02.796Z,3.30
2023-04-05T11:44:40.328Z,3.17
2023-04-05T11:47:12.950Z,3.10
2023-04-05T11:49:42.461Z,4.37
2023-04-05T11:52:20.619Z,3.00
2023-04-05T11:54:49.706Z,2.90
2023-04-05T11:57:21.435Z,2.43
2023-04-05T11:59:53.193Z,2.90
2023-04-05T12:02:21.949Z,2.57
2023-04-05T12:04:59.471Z,2.97
2023-04-05T12:07:32.605Z,2.80
2023-04-05T12:10:07.950Z,2.97
2023-04-05T12:12:38.474Z,3.23
2023-04-05T12:15:09.621Z,2.83
2023-04-05T12:17:45.536Z,3.33
2023-04-05T12:20:16.140Z,3.40
2023-04-05T12:22:48.643Z,2.93
2023-04-05T12:25:20.478Z,3.00
2023-04-05T12:27:49.640Z,3.07
2023-04-05T12:30:19.223Z,3.30
2023-04-05T12:32:52.564Z,2.80
2023-04-05T12:35:21.903Z,3.47
2023-04-05T12:37:53.116Z,3.00
2023-04-05T12:40:23.026Z,3.50
2023-04-05T12:42:51.450Z,8.60
2023-04-05T12:45:19.711Z,4.33
2023-04-05T12:47:52.955Z,3.30
2023-04-05T12:50:28.244Z,3.57
2023-04-05T12:52:59.658Z,3.80
2023-04-05T12:55:29.425Z,4.20
2023-04-05T12:58:00.464Z,3.97
2023-04-05T13:00:31.012Z,3.50
2023-04-05T13:03:01.174Z,3.50
2023-04-05T13:05:31.099Z,3.90
2023-04-05T13:08:03.430Z,3.50
2023-04-05T13:10:31.669Z,3.83
2023-04-05T13:12:59.845Z,5.17
2023-04-05T13:15:29.070Z,4.97
2023-04-05T13:17:57.195Z,3.87
2023-04-05T13:20:25.516Z,3.17
2023-04-05T13:22:53.735Z,3.20
2023-04-05T13:25:23.763Z,3.10
2023-04-05T13:27:52.705Z,2.97
2023-04-05T13:30:21.573Z,3.03
2023-04-05T13:32:50.780Z,3.23
2023-04-05T13:35:19.006Z,3.13
2023-04-05T13:37:47.677Z,3.10
2023-04-05T13:40:16.595Z,3.47
2023-04-05T13:42:48.816Z,3.03
2023-04-05T13:45:17.218Z,3.33
2023-04-05T13:47:45.314Z,2.83
2023-04-05T13:50:13.524Z,3.30
2023-04-05T13:52:41.702Z,3.50
2023-04-05T13:55:10.050Z,3.97
2023-04-05T13:57:38.179Z,3.67
2023-04-05T14:00:09.389Z,3.80
2023-04-05T14:02:41.784Z,3.67
2023-04-05T14:05:10.646Z,3.53
2023-04-05T14:07:42.491Z,3.87
2023-04-05T14:10:11.685Z,3.47
2023-04-05T14:12:43.750Z,3.37
2023-04-05T14:15:13.397Z,3.90
2023-04-05T14:17:43.445Z,3.30
2023-04-05T14:20:12.483Z,3.67
2023-04-05T14:22:40.674Z,3.03
2023-04-05T14:25:10.993Z,3.47
2023-04-05T14:27:42.768Z,3.40
2023-04-05T14:30:13.334Z,2.97
2023-04-05T14:32:41.617Z,3.67
2023-04-05T14:35:11.689Z,3.43
2023-04-05T14:37:39.868Z,3.13
2023-04-05T14:40:09.710Z,3.57
2023-04-05T14:42:49.225Z,3.13
2023-04-05T14:45:19.879Z,3.30
2023-04-05T14:47:49.477Z,3.20
2023-04-05T14:50:17.850Z,2.93
2023-04-05T14:52:46.913Z,3.10
2023-04-05T14:55:16.559Z,3.10
2023-04-05T14:57:44.840Z,2.90
2023-04-05T15:00:17.443Z,3.17
2023-04-05T15:02:48.417Z,2.87
2023-04-05T15:05:17.723Z,2.90
2023-04-05T15:07:45.827Z,2.70
2023-04-05T15:10:15.742Z,3.37
2023-04-05T15:12:47.375Z,2.83
2023-04-05T15:15:18.640Z,3.30
2023-04-05T15:17:48.169Z,3.37
2023-04-05T15:20:16.805Z,3.27
2023-04-05T15:22:45.749Z,3.10
2023-04-05T15:25:13.869Z,3.57
2023-04-05T15:27:42.723Z,2.97
2023-04-05T15:30:12.698Z,5.10
2023-04-05T15:32:41.758Z,3.50
2023-04-05T15:35:11.569Z,3.43
2023-04-05T15:37:43.331Z,3.30
2023-04-05T15:40:12.034Z,3.40
2023-04-05T15:42:40.639Z,3.23
2023-04-05T15:45:11.768Z,3.30
2023-04-05T15:47:39.979Z,3.40
2023-04-05T15:50:08.688Z,4.27
2023-04-05T15:52:38.952Z,4.40
2023-04-05T15:55:07.644Z,4.10
2023-04-05T15:57:36.663Z,3.07
2023-04-05T16:00:05.606Z,3.23
2023-04-05T16:02:33.842Z,2.80
2023-04-05T16:05:04.526Z,6.87
2023-04-05T16:07:33.003Z,6.83
2023-04-05T16:10:03.342Z,4.13
2023-04-05T16:12:31.519Z,3.40
2023-04-05T16:14:59.775Z,3.57
2023-04-05T16:17:28.045Z,3.40
2023-04-05T16:19:57.203Z,3.47
2023-04-05T16:22:25.874Z,4.20
2023-04-05T16:24:53.963Z,3.47
2023-04-05T16:27:23.480Z,21.13
2023-04-05T16:29:51.529Z,14.60
2023-04-05T16:32:21.856Z,3.73
2023-04-05T16:34:53.379Z,2.80
2023-04-05T16:37:21.479Z,3.10
2023-04-05T16:39:53.689Z,3.50
2023-04-05T16:42:23.192Z,3.90
2023-04-05T16:44:51.872Z,3.87
2023-04-05T16:47:19.977Z,3.57
2023-04-05T16:49:48.860Z,4.13
2023-04-05T16:52:16.976Z,3.90
2023-04-05T16:54:46.892Z,4.00
2023-04-05T16:57:15.161Z,4.10
2023-04-05T16:59:44.947Z,3.80
2023-04-05T17:02:18.109Z,4.33
2023-04-05T17:04:48.561Z,4.33
2023-04-05T17:07:16.676Z,4.50
2023-04-05T17:09:44.940Z,4.87
2023-04-05T17:12:13.428Z,5.00
2023-04-05T17:14:46.761Z,5.50
2023-04-05T17:17:14.889Z,5.77
2023-04-05T17:19:43.374Z,4.40
2023-04-05T17:22:11.592Z,4.40
2023-04-05T17:24:39.709Z,4.00
2023-04-05T17:27:07.972Z,4.30
2023-04-05T17:29:36.027Z,4.10
2023-04-05T17:32:05.593Z,4.40
2023-04-05T17:34:33.869Z,3.97
2023-04-05T17:37:02.097Z,4.23
2023-04-05T17:39:30.298Z,4.30
2023-04-05T17:41:58.577Z,4.80
2023-04-05T17:44:26.841Z,4.70
2023-04-05T17:47:07.998Z,5.10
2023-04-05T17:49:38.944Z,5.87
2023-04-05T17:52:09.389Z,5.70
2023-04-05T17:54:38.067Z,6.40
2023-04-05T17:57:06.611Z,5.90
2023-04-05T17:59:34.826Z,6.87
2023-04-05T18:02:02.978Z,7.33
2023-04-05T18:04:31.185Z,9.17
2023-04-05T18:07:01.379Z,9.37
2023-04-05T18:09:32.381Z,7.70
2023-04-05T18:12:01.132Z,6.47
2023-04-05T18:14:30.365Z,6.90
2023-04-05T18:16:59.300Z,5.13
2023-04-05T18:19:27.976Z,5.30
2023-04-05T18:21:58.416Z,5.43
2023-04-05T18:24:29.163Z,6.27
2023-04-05T18:26:57.752Z,7.17
2023-04-05T18:29:28.624Z,6.17
2023-04-05T18:31:57.363Z,6.87
2023-04-05T18:34:25.651Z,6.67
2023-04-05T18:36:53.804Z,6.60
2023-04-05T18:39:23.851Z,7.00
2023-04-05T18:41:55.096Z,7.00
2023-04-05T18:44:23.224Z,7.57
2023-04-05T18:46:52.295Z,7.47
2023-04-05T18:49:21.283Z,7.53
2023-04-05T18:51:51.218Z,6.13
2023-04-05T18:54:19.409Z,6.47
2023-04-05T18:56:47.543Z,6.77
2023-04-05T18:59:20.248Z,7.20
2023-04-05T19:01:48.401Z,7.10
2023-04-05T19:04:19.257Z,6.47
2023-04-05T19:06:47.612Z,7.10
2023-04-05T19:09:16.709Z,7.63
2023-04-05T19:11:44.782Z,7.10
2023-04-05T19:14:16.360Z,7.07
2023-04-05T19:16:46.040Z,7.37
2023-04-05T19:19:14.587Z,7.67
2023-04-05T19:21:42.859Z,6.93
2023-04-05T19:24:16.424Z,6.80
2023-04-05T19:26:44.914Z,5.23
2023-04-05T19:29:13.034Z,23.67
2023-04-05T19:31:42.009Z,8.10
2023-04-05T19:34:11.595Z,6.40
2023-04-05T19:36:39.759Z,6.60
2023-04-05T19:39:12.497Z,5.50
2023-04-05T19:41:43.086Z,5.90
2023-04-05T19:44:13.151Z,5.60
2023-04-05T19:46:41.927Z,5.47
2023-04-05T19:49:14.339Z,5.57
2023-04-05T19:51:43.727Z,5.27
2023-04-05T19:54:14.913Z,5.63
2023-04-05T19:56:43.427Z,5.47
2023-04-05T19:59:29.111Z,9.50
2023-04-05T20:01:59.870Z,11.90
2023-04-05T20:04:36.395Z,11.07
2023-04-05T20:07:08.199Z,10.40
2023-04-05T20:09:40.168Z,9.83
2023-04-05T20:12:13.348Z,9.07
2023-04-05T20:14:43.808Z,9.27
2023-04-05T20:17:13.424Z,8.13
2023-04-05T20:19:56.116Z,7.53
2023-04-05T20:22:29.015Z,7.73
2023-04-05T20:24:59.388Z,9.20
2023-04-05T20:27:27.713Z,8.27
2023-04-05T20:29:57.851Z,8.40
2023-04-05T20:32:29.108Z,8.33
2023-04-05T20:34:58.873Z,8.40
2023-04-05T20:37:26.984Z,8.33
2023-04-05T20:39:55.356Z,7.60
2023-04-05T20:42:23.803Z,7.40
2023-04-05T20:44:51.882Z,6.43
2023-04-05T20:47:23.520Z,7.43
2023-04-05T20:49:51.704Z,8.10
2023-04-05T20:52:23.846Z,8.20
2023-04-05T20:54:52.834Z,6.87
2023-04-05T20:57:20.879Z,8.00
2023-04-05T20:59:51.822Z,8.40
2023-04-05T21:02:19.925Z,8.53
2023-04-05T21:04:50.868Z,8.70
2023-04-05T21:07:19.014Z,9.27
2023-04-05T21:09:48.452Z,10.10
2023-04-05T21:12:19.844Z,10.60
2023-04-05T21:14:47.869Z,9.57
2023-04-05T21:17:18.866Z,9.60
2023-04-05T21:19:46.993Z,8.23
2023-04-05T21:22:15.049Z,8.20
2023-04-05T21:24:44.826Z,8.47
2023-04-05T21:27:14.987Z,8.67
2023-04-05T21:29:46.824Z,8.70
2023-04-05T21:32:14.921Z,9.50
2023-04-05T21:34:43.836Z,10.70
2023-04-05T21:37:15.843Z,25.97
2023-04-05T21:39:43.996Z,17.87
2023-04-05T21:42:12.827Z,15.37
2023-04-05T21:44:42.268Z,17.27
2023-04-05T21:47:10.866Z,16.67
2023-04-05T21:49:39.695Z,17.33
2023-04-05T21:52:07.818Z,17.07
2023-04-05T21:54:36.824Z,13.40
2023-04-05T21:57:04.996Z,12.30
2023-04-05T21:59:33.847Z,12.87
2023-04-05T22:02:03.843Z,12.17
2023-04-05T22:04:31.997Z,11.00
2023-04-05T22:07:04.439Z,9.40
2023-04-05T22:09:33.857Z,9.10
2023-04-05T22:12:03.070Z,8.60
2023-04-05T22:14:31.248Z,8.37
2023-04-05T22:16:59.406Z,8.53
2023-04-05T22:19:32.472Z,8.20
2023-04-05T22:22:00.596Z,7.80
2023-04-05T22:24:31.445Z,8.07
2023-04-05T22:27:00.005Z,8.03
2023-04-05T22:29:28.076Z,8.27
2023-04-05T22:32:00.396Z,9.80
2023-04-05T22:34:29.981Z,9.83
2023-04-05T22:36:59.441Z,13.37
2023-04-05T22:39:27.903Z,35.17
2023-04-05T22:41:56.661Z,12.47
2023-04-05T22:44:28.308Z,9.60
2023-04-05T22:46:56.396Z,9.60
2023-04-05T22:49:27.412Z,9.17
2023-04-05T22:51:57.835Z,10.43
2023-04-05T22:54:25.976Z,10.93
2023-04-05T22:56:56.491Z,10.53
2023-04-05T22:59:24.676Z,11.57
2023-04-05T23:01:55.462Z,11.40
2023-04-05T23:04:24.681Z,9.97
2023-04-05T23:06:53.852Z,10.73
2023-04-05T23:09:24.367Z,9.67
2023-04-05T23:11:52.362Z,8.40
2023-04-05T23:14:23.453Z,8.37
2023-04-05T23:16:51.570Z,8.07
2023-04-05T23:19:19.730Z,8.60
2023-04-05T23:21:47.846Z,8.50
2023-04-05T23:24:16.120Z,8.13
2023-04-05T23:26:46.894Z,8.30
2023-04-05T23:29:19.353Z,8.13
2023-04-05T23:31:50.575Z,7.50
2023-04-05T23:34:20.912Z,7.63
2023-04-05T23:36:49.886Z,7.77
2023-04-05T23:39:17.939Z,7.60
2023-04-05T23:41:47.703Z,8.47
2023-04-05T23:44:17.894Z,7.90
2023-04-05T23:46:46.208Z,7.50
2023-04-05T23:49:16.868Z,7.83
2023-04-05T23:51:47.534Z,7.80
2023-04-05T23:54:15.677Z,7.03
2023-04-05T23:56:44.803Z,7.30
2023-04-05T23:59:14.347Z,6.77
